WetterOnline ( https://www.wetteronline.de )

Wetter aktuell Andernach

Aktuelles Wetter: Andernach (75m)

6-stündlich | Neueste Meldungen
Ortszeit Temperatur Wetter
Di, 16.08. 2:00 18.2° C wolkenlos
Mo, 15.08. 20:00 25.2° C leicht bewölkt
Mo, 15.08. 14:00 24.0° C wolkig
Mo, 15.08. 8:00 22.6° C bedeckt
Mo, 15.08. 2:00 19.0° C bedeckt
So, 14.08. 20:00 29.6° C wolkig
So, 14.08. 14:00 31.3° C fast wolkenlos
So, 14.08. 8:00 18.4° C leicht bewölkt
Ortszeit Temperatur Wetter
Di, 16.08. 6:00 16.4° C bedeckt
Di, 16.08. 5:50 16.4° C bedeckt
Di, 16.08. 5:40 16.2° C bedeckt
Di, 16.08. 5:30 16.0° C bedeckt
Di, 16.08. 5:20 16.0° C bedeckt
Di, 16.08. 5:10 16.3° C bewölkt
Di, 16.08. 5:00 16.3° C leicht bewölkt
Di, 16.08. 4:30 17.1° C leicht bewölkt
Di, 16.08. 4:00 17.6° C bedeckt
Di, 16.08. 3:30 17.9° C bedeckt
Di, 16.08. 3:00 17.9° C wolkig
Ortszeit Relative Feuchte Sichtweite
Di, 16.08. 2:00 78% 50 km
Mo, 15.08. 20:00 48% 55 km
Mo, 15.08. 14:00 59% 45 km
Mo, 15.08. 8:00 61% 35 km
Mo, 15.08. 2:00 62% 50 km
So, 14.08. 20:00 29% 50 km
So, 14.08. 14:00 28% 40 km
So, 14.08. 8:00 64% 55 km
Ortszeit Relative Feuchte Sichtweite
Di, 16.08. 6:00 87% 45 km
Di, 16.08. 5:50 87% -
Di, 16.08. 5:40 86% -
Di, 16.08. 5:30 87% 45 km
Di, 16.08. 5:20 87% -
Di, 16.08. 5:10 86% -
Di, 16.08. 5:00 86% 50 km
Di, 16.08. 4:30 82% 50 km
Di, 16.08. 4:00 79% 55 km
Di, 16.08. 3:30 78% 45 km
Di, 16.08. 3:00 77% 45 km
Ortszeit Niederschlagsmenge Niederschlagsart
Di, 16.08. 2:00 0.0 l/m2 in 6 Std. -
Mo, 15.08. 20:00 0.1 l/m2 in 12 Std. -
Mo, 15.08. 14:00 0.1 l/m2 in 6 Std. Regen
Mo, 15.08. 8:00 0.1 l/m2 in 12 Std. Regen
Mo, 15.08. 2:00 0.0 l/m2 in 6 Std. -
So, 14.08. 20:00 0.0 l/m2 in 12 Std. -
So, 14.08. 14:00 0.0 l/m2 in 6 Std. -
So, 14.08. 8:00 0.0 l/m2 in 12 Std. -
Ortszeit Niederschlagsmenge Niederschlagsart
Di, 16.08. 6:00 0.0 l/m2 in 1 Std. -
Di, 16.08. 5:50 keine Meldung -
Di, 16.08. 5:40 keine Meldung -
Di, 16.08. 5:30 0.0 l/m2 in 1 Std. -
Di, 16.08. 5:20 keine Meldung -
Di, 16.08. 5:10 keine Meldung -
Di, 16.08. 5:00 0.0 l/m2 in 1 Std. -
Di, 16.08. 4:30 0.0 l/m2 in 1 Std. -
Di, 16.08. 4:00 0.0 l/m2 in 1 Std. -
Di, 16.08. 3:30 0.0 l/m2 in 1 Std. -
Di, 16.08. 3:00 0.0 l/m2 in 1 Std. -
Ortszeit Stärke Spitze Richtung
km/h Bft. km/h Grad Sektor
Di, 16.08. 2:00 4 1 25 330° NW
Mo, 15.08. 20:00 4 1 32 30° NO
Mo, 15.08. 14:00 7 2 29 160° S
Mo, 15.08. 8:00 7 2 17 210° SW
Mo, 15.08. 2:00 4 1 11 150° SO
So, 14.08. 20:00 6 1 28 160° S
So, 14.08. 14:00 13 3 24 120° SO
So, 14.08. 8:00 4 1 11 170° S
Ortszeit Stärke Spitze Richtung
km/h Bft. km/h Grad Sektor
Di, 16.08. 6:00 4 1 7 270° W
Di, 16.08. 5:50 4 1 - 270° W
Di, 16.08. 5:40 4 1 - 280° W
Di, 16.08. 5:30 4 1 4 280° W
Di, 16.08. 5:20 4 1 - 280° W
Di, 16.08. 5:10 2 1 - 280° W
Di, 16.08. 5:00 4 1 7 290° W
Di, 16.08. 4:30 4 1 7 290° W
Di, 16.08. 4:00 2 1 6 250° W
Di, 16.08. 3:30 4 1 4 320° NW
Di, 16.08. 3:00 4 1 4 290° W
Ortszeit Untergrenze Bedeckung Gattung
total tief tief mittel hoch
Di, 16.08. 2:00 - 0/8 0/8 - - -
Mo, 15.08. 20:00 1500 m 5/8 1/8 - - -
Mo, 15.08. 14:00 930 m 8/8 1/8 - - -
Mo, 15.08. 8:00 3900 m 8/8 8/8 - - -
Mo, 15.08. 2:00 3300 m 8/8 8/8 - - -
So, 14.08. 20:00 8700 m 8/8 0/8 - - -
So, 14.08. 14:00 12000 m 1/8 0/8 - - -
So, 14.08. 8:00 10500 m 3/8 0/8 - - -
Ortszeit Bedeckungsgrad in Achtel und Wolkenuntergrenze
Di, 16.08. 6:00 8(3600m) 8(3900m)
Di, 16.08. 5:50 8(3600m) 8(3900m)
Di, 16.08. 5:40 8
Di, 16.08. 5:30 8(3600m) 8(3900m) 8(6600m)
Di, 16.08. 5:20 8(3600m) 8(3900m) 8(6600m)
Di, 16.08. 5:10 7
Di, 16.08. 5:00 3(3600m) 3(6600m)
Di, 16.08. 4:30 3(2100m) 4(3600m)
Di, 16.08. 4:00 8(3600m) 8(7800m)
Di, 16.08. 3:30 8(3600m) 8(4200m) 8(7800m)
Di, 16.08. 3:00 1(2100m) 7(3600m) 8(8400m)
Ortszeit Luftdruck NN (hPa) Tendenz (hPa in 3 Std.)
Di, 16.08. 2:00 1008 + 1,0
Mo, 15.08. 20:00 1005 + 0,1
Mo, 15.08. 14:00 1006 + 0,4
Mo, 15.08. 8:00 1005 + 0,2
Mo, 15.08. 2:00 1005 0,0
So, 14.08. 20:00 1004 - 0,8
So, 14.08. 14:00 1007 - 2,3
So, 14.08. 8:00 1011 - 1,0
Ortszeit Luftdruck NN (hPa) Tendenz (hPa in 3 Std.)
Di, 16.08. 6:00 1008 - 0,1
Di, 16.08. 5:50 1008 keine Meldung
Di, 16.08. 5:40 1008 keine Meldung
Di, 16.08. 5:30 1008 + 0,1
Di, 16.08. 5:20 1008 keine Meldung
Di, 16.08. 5:10 1008 keine Meldung
Di, 16.08. 5:00 1008 0,0
Di, 16.08. 4:30 1008 + 0,1
Di, 16.08. 4:00 1008 + 0,2
Di, 16.08. 3:30 1008 + 0,7
Di, 16.08. 3:00 1008 + 1,0
Ortszeit Schneehöhe (cm)
Di, 16.08. 2:00 0
Mo, 15.08. 20:00 0
Mo, 15.08. 14:00 0
Mo, 15.08. 8:00 0
Mo, 15.08. 2:00 0
So, 14.08. 20:00 0
So, 14.08. 14:00 0
So, 14.08. 8:00 0
Ortszeit Schneehöhe (cm)
Di, 16.08. 6:00 0
Di, 16.08. 5:50 0
Di, 16.08. 5:40 0
Di, 16.08. 5:30 0
Di, 16.08. 5:20 0
Di, 16.08. 5:10 0
Di, 16.08. 5:00 0
Di, 16.08. 4:30 0
Di, 16.08. 4:00 0
Di, 16.08. 3:30 0
Di, 16.08. 3:00 0
Link zu dieser Seite / Seite empfehlen

Das Wetter in ...